createdAt,value
2023-04-13T00:02:34.151Z,97963.03
2023-04-13T00:05:22.182Z,97948.97
2023-04-13T00:08:09.504Z,97941.94
2023-04-13T00:10:57.510Z,97947.94
2023-04-13T00:13:47.401Z,97957.19
2023-04-13T00:16:34.502Z,97948.97
2023-04-13T00:19:21.578Z,97952.84
2023-04-13T00:22:09.834Z,97953.16
2023-04-13T00:24:57.815Z,97958.34
2023-04-13T00:27:45.050Z,97965.53
2023-04-13T00:30:32.524Z,97961.34
2023-04-13T00:33:19.695Z,97966.38
2023-04-13T00:36:07.115Z,97961.16
2023-04-13T00:38:54.807Z,97967.84
2023-04-13T00:41:42.467Z,97979.38
2023-04-13T00:44:30.897Z,97972.72
2023-04-13T00:47:30.945Z,97948.63
2023-04-13T00:50:19.106Z,97947.94
2023-04-13T00:53:10.519Z,97936.25
2023-04-13T00:55:58.526Z,97937.75
2023-04-13T00:58:45.826Z,97933.06
2023-04-13T01:01:32.889Z,97930.53
2023-04-13T01:04:20.108Z,97936.75
2023-04-13T01:07:12.169Z,97946.28
2023-04-13T01:10:17.355Z,97945.28
2023-04-13T01:13:24.021Z,97944.59
2023-04-13T01:16:33.223Z,97943.78
2023-04-13T01:19:47.018Z,97954.81
2023-04-13T01:22:36.660Z,97957.31
2023-04-13T01:25:42.128Z,97955.97
2023-04-13T01:28:30.181Z,97952.97
2023-04-13T01:31:18.045Z,97960.69
2023-04-13T01:34:06.125Z,97956.31
2023-04-13T01:36:53.695Z,97963.50
2023-04-13T01:39:41.238Z,97969.72
2023-04-13T01:42:28.353Z,97973.06
2023-04-13T01:45:27.407Z,97970.88
2023-04-13T01:48:45.145Z,97978.75
2023-04-13T01:51:34.829Z,97973.38
2023-04-13T01:54:27.460Z,97966.03
2023-04-13T01:57:17.507Z,97979.09
2023-04-13T02:00:11.076Z,97983.44
2023-04-13T02:02:58.225Z,97978.56
2023-04-13T02:05:46.226Z,97982.94
2023-04-13T02:08:34.966Z,97982.94
2023-04-13T02:11:22.280Z,97992.97
2023-04-13T02:14:09.711Z,97987.44
2023-04-13T02:16:56.756Z,97978.03
2023-04-13T02:19:44.174Z,97983.41
2023-04-13T02:22:31.265Z,97976.88
2023-04-13T02:25:18.996Z,97992.09
2023-04-13T02:28:06.255Z,97985.91
2023-04-13T02:30:56.781Z,98007.00
2023-04-13T02:33:44.886Z,98003.81
2023-04-13T02:36:31.870Z,98017.03
2023-04-13T02:39:19.661Z,98010.34
2023-04-13T02:42:06.717Z,98023.06
2023-04-13T02:44:53.740Z,98014.53
2023-04-13T02:47:40.820Z,98021.72
2023-04-13T02:50:28.184Z,98025.06
2023-04-13T02:53:17.031Z,98024.56
2023-04-13T02:56:04.394Z,98020.91
2023-04-13T02:58:51.822Z,98026.25
2023-04-13T03:01:39.915Z,98023.44
2023-04-13T03:04:27.795Z,98019.06
2023-04-13T03:07:17.322Z,98011.53
2023-04-13T03:10:05.533Z,98035.66
2023-04-13T03:12:52.676Z,98031.31
2023-04-13T03:15:41.352Z,98029.25
2023-04-13T03:18:28.583Z,98032.09
2023-04-13T03:21:16.056Z,98040.97
2023-04-13T03:24:03.287Z,98045.50
2023-04-13T03:26:50.521Z,98045.66
2023-04-13T03:29:37.814Z,98047.00
2023-04-13T03:32:25.599Z,98045.84
2023-04-13T03:35:12.699Z,98030.78
2023-04-13T03:38:00.140Z,98049.69
2023-04-13T03:40:47.320Z,98041.16
2023-04-13T03:43:34.428Z,98048.84
2023-04-13T03:46:22.115Z,98053.53
2023-04-13T03:49:11.164Z,98065.94
2023-04-13T03:51:59.050Z,98071.94
2023-04-13T03:54:46.063Z,98062.44
2023-04-13T03:57:33.915Z,98075.31
2023-04-13T04:00:21.026Z,98078.47
2023-04-13T04:03:08.229Z,98075.47
2023-04-13T04:05:55.308Z,98076.16
2023-04-13T04:08:44.039Z,98084.34
2023-04-13T04:11:31.187Z,98073.13
2023-04-13T04:14:18.520Z,98078.66
2023-04-13T04:17:05.726Z,98090.00
2023-04-13T04:19:53.265Z,98080.47
2023-04-13T04:22:41.960Z,98095.84
2023-04-13T04:25:28.995Z,98084.47
2023-04-13T04:28:18.257Z,98085.81
2023-04-13T04:31:07.274Z,98084.31
2023-04-13T04:33:55.204Z,98085.13
2023-04-13T04:36:45.646Z,98094.50
2023-04-13T04:39:35.527Z,98090.84
2023-04-13T04:42:22.641Z,98084.59
2023-04-13T04:45:10.921Z,98099.34
2023-04-13T04:47:58.052Z,98105.19
2023-04-13T04:50:45.601Z,98100.69
2023-04-13T04:53:32.641Z,98108.19
2023-04-13T04:56:21.660Z,98099.13
2023-04-13T04:59:08.743Z,98110.72
2023-04-13T05:01:56.222Z,98093.63
2023-04-13T05:04:43.344Z,98092.06
2023-04-13T05:07:30.621Z,98110.81
2023-04-13T05:10:17.631Z,98105.28
2023-04-13T05:13:04.623Z,98113.84
2023-04-13T05:15:51.818Z,98123.69
2023-04-13T05:18:46.388Z,98112.31
2023-04-13T05:21:33.939Z,98114.63
2023-04-13T05:24:21.105Z,98121.66
2023-04-13T05:27:09.900Z,98124.69
2023-04-13T05:29:57.374Z,98122.13
2023-04-13T05:32:44.896Z,98132.34
2023-04-13T05:35:31.977Z,98110.84
2023-04-13T05:38:19.028Z,98131.63
2023-04-13T05:41:07.513Z,98137.13
2023-04-13T05:43:54.564Z,98132.09
2023-04-13T05:46:41.802Z,98133.94
2023-04-13T05:49:28.944Z,98138.31
2023-04-13T05:52:15.970Z,98131.22
2023-04-13T05:55:04.086Z,98148.16
2023-04-13T05:57:51.549Z,98143.59
2023-04-13T06:00:39.012Z,98127.88
2023-04-13T06:03:27.561Z,98148.00
2023-04-13T06:06:17.485Z,98135.25
2023-04-13T06:09:05.887Z,98144.59
2023-04-13T06:11:54.503Z,98147.28
2023-04-13T06:14:41.953Z,98146.28
2023-04-13T06:17:29.046Z,98148.94
2023-04-13T06:20:16.404Z,98156.78
2023-04-13T06:23:03.442Z,98147.47
2023-04-13T06:25:51.044Z,98144.03
2023-04-13T06:28:38.067Z,98155.09
2023-04-13T06:31:27.859Z,98165.97
2023-04-13T06:34:15.114Z,98152.81
2023-04-13T06:37:04.086Z,98161.72
2023-04-13T06:39:51.750Z,98162.06
2023-04-13T06:42:40.639Z,98167.41
2023-04-13T06:45:27.785Z,98163.06
2023-04-13T06:48:14.818Z,98166.41
2023-04-13T06:51:01.981Z,98168.41
2023-04-13T06:53:49.222Z,98171.44
2023-04-13T06:56:36.379Z,98178.25
2023-04-13T06:59:23.573Z,98186.75
2023-04-13T07:02:10.786Z,98184.03
2023-04-13T07:04:58.680Z,98179.44
2023-04-13T07:07:46.687Z,98185.22
2023-04-13T07:10:37.621Z,98190.72
2023-04-13T07:13:25.986Z,98196.91
2023-04-13T07:16:13.097Z,98187.53
2023-04-13T07:19:03.415Z,98189.50
2023-04-13T07:21:50.446Z,98194.31
2023-04-13T07:24:37.478Z,98196.44
2023-04-13T07:27:24.477Z,98193.47
2023-04-13T07:30:11.982Z,98192.31
2023-04-13T07:32:59.058Z,98208.50
2023-04-13T07:35:46.444Z,98206.44
2023-04-13T07:38:33.628Z,98208.47
2023-04-13T07:41:22.882Z,98199.44
2023-04-13T07:44:10.161Z,98191.47
2023-04-13T07:46:57.317Z,98219.16
2023-04-13T07:49:44.396Z,98205.59
2023-04-13T07:52:31.680Z,98213.50
2023-04-13T07:55:18.747Z,98232.88
2023-04-13T07:58:05.852Z,98222.72
2023-04-13T08:00:53.184Z,98231.06
2023-04-13T08:03:40.350Z,98220.69
2023-04-13T08:06:27.586Z,98232.44
2023-04-13T08:09:15.139Z,98226.50
2023-04-13T08:12:05.057Z,98229.03
2023-04-13T08:14:52.130Z,98239.44
2023-04-13T08:17:39.238Z,98238.22
2023-04-13T08:20:26.306Z,98236.47
2023-04-13T08:23:13.409Z,98246.31
2023-04-13T08:26:02.844Z,98242.66
2023-04-13T08:28:51.055Z,98251.53
2023-04-13T08:31:38.642Z,98251.28
2023-04-13T08:34:26.196Z,98243.41
2023-04-13T08:37:15.547Z,98239.84
2023-04-13T08:40:07.414Z,98236.53
2023-04-13T08:42:55.840Z,98239.47
2023-04-13T08:45:43.047Z,98225.88
2023-04-13T08:48:46.395Z,98233.75
2023-04-13T08:51:38.896Z,98223.19
2023-04-13T08:54:28.578Z,98235.53
2023-04-13T08:57:16.415Z,98252.13
2023-04-13T09:00:10.485Z,98258.78
2023-04-13T09:03:06.036Z,98247.25
2023-04-13T09:06:04.071Z,98246.56
2023-04-13T09:08:52.160Z,98241.88
2023-04-13T09:11:39.542Z,98259.31
2023-04-13T09:14:27.201Z,98258.34
2023-04-13T09:17:34.511Z,98253.81
2023-04-13T09:20:23.632Z,98257.94
2023-04-13T09:23:15.419Z,98269.81
2023-04-13T09:26:09.654Z,98263.88
2023-04-13T09:28:57.906Z,98270.28
2023-04-13T09:31:47.530Z,98261.78
2023-04-13T09:34:34.595Z,98268.56
2023-04-13T09:37:21.985Z,98275.66
2023-04-13T09:40:13.779Z,98268.94
2023-04-13T09:43:05.351Z,98271.09
2023-04-13T09:45:52.500Z,98270.34
2023-04-13T09:48:40.169Z,98282.19
2023-04-13T09:51:35.211Z,98279.50
2023-04-13T09:54:22.928Z,98280.00
2023-04-13T09:57:10.029Z,98284.19
2023-04-13T10:00:00.791Z,98281.16
2023-04-13T10:02:52.766Z,98292.19
2023-04-13T10:05:55.021Z,98284.63
2023-04-13T10:08:46.516Z,98263.09
2023-04-13T10:11:45.725Z,98272.09
2023-04-13T10:14:36.100Z,98257.34
2023-04-13T10:17:37.644Z,98270.16
2023-04-13T10:20:27.240Z,98251.97
2023-04-13T10:23:14.881Z,98265.91
2023-04-13T10:26:03.939Z,98266.75
2023-04-13T10:28:51.027Z,98264.28
2023-04-13T10:31:47.192Z,98263.91
2023-04-13T10:34:38.265Z,98257.00
2023-04-13T10:37:28.905Z,98256.53
2023-04-13T10:40:16.410Z,98238.31
2023-04-13T10:43:03.574Z,98243.38
2023-04-13T10:45:50.661Z,98243.53
2023-04-13T10:48:37.878Z,98241.84
2023-04-13T10:51:27.695Z,98240.75
2023-04-13T10:54:14.818Z,98231.78
2023-04-13T10:57:04.653Z,98217.50
2023-04-13T10:59:59.613Z,98231.25
2023-04-13T11:02:47.233Z,98216.03
2023-04-13T11:05:34.996Z,98230.44
2023-04-13T11:08:22.093Z,98222.88
2023-04-13T11:11:14.850Z,98206.31
2023-04-13T11:14:02.298Z,98216.00
2023-04-13T11:16:49.727Z,98226.25
2023-04-13T11:19:50.702Z,98221.00
2023-04-13T11:22:38.417Z,98230.44
2023-04-13T11:25:26.598Z,98224.91
2023-04-13T11:28:13.782Z,98233.09
2023-04-13T11:31:01.686Z,98226.03
2023-04-13T11:33:49.190Z,98229.94
2023-04-13T11:36:39.075Z,98222.88
2023-04-13T11:39:28.017Z,98220.69
2023-04-13T11:42:15.059Z,98218.03
2023-04-13T11:45:03.136Z,98224.72
2023-04-13T11:47:50.947Z,98224.72
2023-04-13T11:50:38.280Z,98217.53
2023-04-13T11:53:25.457Z,98214.84
2023-04-13T11:56:14.649Z,98229.91
2023-04-13T11:59:02.281Z,98225.91
2023-04-13T12:01:54.368Z,98230.94
2023-04-13T12:04:49.232Z,98219.53
2023-04-13T12:07:43.126Z,98208.97
2023-04-13T12:13:35.788Z,98214.47
2023-04-13T12:16:55.360Z,98213.63
2023-04-13T12:19:40.927Z,98214.00
2023-04-13T12:22:55.046Z,98202.94
2023-04-13T12:26:40.645Z,98176.13
2023-04-13T12:29:15.507Z,98188.88
2023-04-13T12:32:04.118Z,98182.44
2023-04-13T12:34:44.081Z,98180.59
2023-04-13T12:37:31.266Z,98182.78
2023-04-13T12:40:19.403Z,98195.63
2023-04-13T12:43:06.984Z,98180.94
2023-04-13T12:45:55.179Z,98182.28
2023-04-13T12:48:42.425Z,98175.41
2023-04-13T12:51:29.453Z,98171.63
2023-04-13T12:54:18.127Z,98178.94
2023-04-13T12:57:05.125Z,98174.78
2023-04-13T12:59:52.221Z,98167.91
2023-04-13T13:02:39.524Z,98164.06
2023-04-13T13:05:26.797Z,98179.31
2023-04-13T13:08:13.817Z,98184.69
2023-04-13T13:11:01.063Z,98178.13
2023-04-13T13:13:48.406Z,98163.94
2023-04-13T13:16:35.557Z,98179.16
2023-04-13T13:19:22.583Z,98174.47
2023-04-13T13:22:09.659Z,98183.19
2023-04-13T13:24:57.040Z,98173.78
2023-04-13T13:30:37.145Z,98179.66
2023-04-13T13:33:24.402Z,98161.25
2023-04-13T13:36:12.716Z,98159.38
2023-04-13T13:39:00.343Z,98161.72
2023-04-13T13:41:47.599Z,98159.34
2023-04-13T13:44:36.824Z,98155.31
2023-04-13T13:47:24.240Z,98146.44
2023-04-13T13:50:11.957Z,98150.31
2023-04-13T13:53:03.002Z,98160.22
2023-04-13T13:55:51.231Z,98154.69
2023-04-13T13:58:38.275Z,98156.47
2023-04-13T14:01:25.525Z,98147.06
2023-04-13T14:04:13.357Z,98126.19
2023-04-13T14:07:00.896Z,98161.69
2023-04-13T14:09:47.965Z,98145.28
2023-04-13T14:12:35.068Z,98161.25
2023-04-13T14:15:22.595Z,98157.53
2023-04-13T14:18:11.453Z,98146.69
2023-04-13T14:20:59.275Z,98152.19
2023-04-13T14:23:46.511Z,98150.19
2023-04-13T14:26:36.498Z,98144.66
2023-04-13T14:29:23.568Z,98147.81
2023-04-13T14:32:10.597Z,98137.78
2023-04-13T14:34:58.508Z,98152.31
2023-04-13T14:37:45.685Z,98126.69
2023-04-13T14:40:32.862Z,98088.03
2023-04-13T14:43:19.886Z,98125.72
2023-04-13T14:46:06.989Z,98146.34
2023-04-13T14:48:54.039Z,98146.31
2023-04-13T14:51:41.245Z,98125.56
2023-04-13T14:54:28.729Z,98122.88
2023-04-13T14:57:17.332Z,98137.78
2023-04-13T15:00:08.013Z,98138.97
2023-04-13T15:02:55.457Z,98119.88
2023-04-13T15:05:48.443Z,98133.44
2023-04-13T15:08:35.994Z,98149.34
2023-04-13T15:11:23.104Z,98136.59
2023-04-13T15:14:10.224Z,98138.94
2023-04-13T15:16:57.314Z,98160.06
2023-04-13T15:19:44.527Z,98157.88
2023-04-13T15:22:31.532Z,98129.94
2023-04-13T15:25:18.660Z,98150.53
2023-04-13T15:28:05.822Z,98142.81
2023-04-13T15:30:53.109Z,98144.50
2023-04-13T15:33:40.177Z,98144.50
2023-04-13T15:36:27.967Z,98148.63
2023-04-13T15:39:15.059Z,98155.25
2023-04-13T15:42:02.414Z,98161.22
2023-04-13T15:44:50.887Z,98159.41
2023-04-13T15:47:38.252Z,98148.34
2023-04-13T15:50:26.508Z,98162.91
2023-04-13T15:53:13.666Z,98169.88
2023-04-13T15:56:01.287Z,98148.63
2023-04-13T15:58:49.729Z,98160.47
2023-04-13T16:01:48.702Z,98142.13
2023-04-13T16:04:36.306Z,98144.47
2023-04-13T16:07:23.580Z,98164.03
2023-04-13T16:10:17.422Z,98178.38
2023-04-13T16:13:06.681Z,98169.72
2023-04-13T16:15:58.821Z,98182.25
2023-04-13T16:18:46.005Z,98190.53
2023-04-13T16:21:33.353Z,98188.28
2023-04-13T16:24:21.231Z,98179.13
2023-04-13T16:27:09.208Z,98186.84
2023-04-13T16:29:58.208Z,98202.94
2023-04-13T16:32:46.751Z,98199.28
2023-04-13T16:35:34.015Z,98184.00
2023-04-13T16:38:21.204Z,98204.31
2023-04-13T16:41:14.056Z,98186.84
2023-04-13T16:44:02.474Z,98177.47
2023-04-13T16:46:49.948Z,98170.66
2023-04-13T16:49:37.260Z,98164.94
2023-04-13T16:52:24.331Z,98164.63
2023-04-13T16:55:15.141Z,98164.06
2023-04-13T16:58:02.374Z,98171.28
2023-04-13T17:00:51.127Z,98167.06
2023-04-13T17:03:38.379Z,98193.88
2023-04-13T17:06:27.378Z,98184.97
2023-04-13T17:09:14.726Z,98198.84
2023-04-13T17:12:02.022Z,98193.63
2023-04-13T17:14:52.472Z,98190.94
2023-04-13T17:17:39.678Z,98194.84
2023-04-13T17:20:27.507Z,98208.75
2023-04-13T17:23:14.651Z,98206.25
2023-04-13T17:26:03.891Z,98222.97
2023-04-13T17:28:51.942Z,98217.09
2023-04-13T17:31:39.076Z,98222.72
2023-04-13T17:34:26.382Z,98209.59
2023-04-13T17:37:13.859Z,98200.59
2023-04-13T17:40:01.178Z,98224.91
2023-04-13T17:42:48.607Z,98224.28
2023-04-13T17:45:37.180Z,98220.28
2023-04-13T17:48:25.981Z,98214.84
2023-04-13T17:51:13.583Z,98210.94
2023-04-13T17:54:01.353Z,98208.84
2023-04-13T17:56:48.805Z,98226.94
2023-04-13T17:59:36.147Z,98224.72
2023-04-13T18:02:23.648Z,98223.19
2023-04-13T18:05:15.508Z,98234.41
2023-04-13T18:08:03.066Z,98222.06
2023-04-13T18:10:50.039Z,98214.00
2023-04-13T18:13:37.318Z,98229.16
2023-04-13T18:16:26.483Z,98232.19
2023-04-13T18:19:15.163Z,98234.41
2023-04-13T18:22:03.661Z,98238.06
2023-04-13T18:24:51.679Z,98231.34
2023-04-13T18:27:39.433Z,98240.47
2023-04-13T18:30:27.749Z,98252.25
2023-04-13T18:33:15.815Z,98236.03
2023-04-13T18:36:03.498Z,98240.19
2023-04-13T18:38:51.982Z,98241.50
2023-04-13T18:41:41.813Z,98235.03
2023-04-13T18:44:29.733Z,98236.03
2023-04-13T18:47:19.334Z,98241.59
2023-04-13T18:50:09.298Z,98230.28
2023-04-13T18:52:57.525Z,98236.72
2023-04-13T18:55:52.798Z,98216.56
2023-04-13T18:58:40.371Z,98207.16
2023-04-13T19:01:28.363Z,98218.81
2023-04-13T19:04:16.489Z,98223.72
2023-04-13T19:07:09.149Z,98219.66
2023-04-13T19:09:56.378Z,98233.16
2023-04-13T19:12:43.614Z,98211.81
2023-04-13T19:15:33.995Z,98243.91
2023-04-13T19:18:22.064Z,98240.31
2023-04-13T19:21:11.710Z,98251.38
2023-04-13T19:23:59.757Z,98257.25
2023-04-13T19:26:47.970Z,98254.47
2023-04-13T19:29:36.691Z,98234.84
2023-04-13T19:32:25.124Z,98241.72
2023-04-13T19:35:14.334Z,98237.09
2023-04-13T19:38:01.951Z,98235.94
2023-04-13T19:40:49.590Z,98221.38
2023-04-13T19:43:38.318Z,98211.22
2023-04-13T19:46:26.263Z,98222.50
2023-04-13T19:49:14.606Z,98215.13
2023-04-13T19:52:02.657Z,98209.16
2023-04-13T19:54:50.397Z,98210.41
2023-04-13T19:57:42.382Z,98215.47
2023-04-13T20:00:30.444Z,98190.50
2023-04-13T20:03:20.854Z,98192.50
2023-04-13T20:06:08.744Z,98206.03
2023-04-13T20:09:07.831Z,98184.81
2023-04-13T20:11:55.769Z,98180.06
2023-04-13T20:14:43.235Z,98165.34
2023-04-13T20:17:30.917Z,98182.28
2023-04-13T20:20:20.616Z,98174.44
2023-04-13T20:23:10.702Z,98167.88
2023-04-13T20:25:59.190Z,98177.88
2023-04-13T20:28:46.267Z,98181.22
2023-04-13T20:31:34.848Z,98178.41
2023-04-13T20:34:24.430Z,98170.16
2023-04-13T20:37:14.463Z,98163.47
2023-04-13T20:40:03.322Z,98169.94
2023-04-13T20:42:51.349Z,98162.22
2023-04-13T20:45:38.527Z,98166.16
2023-04-13T20:51:16.076Z,98157.34
2023-04-13T20:54:05.822Z,98152.69
2023-04-13T20:56:53.027Z,98143.84
2023-04-13T20:59:40.075Z,98134.22
2023-04-13T21:02:28.843Z,98140.19
2023-04-13T21:05:16.067Z,98152.53
2023-04-13T21:08:03.226Z,98140.63
2023-04-13T21:10:50.371Z,98120.59
2023-04-13T21:13:37.437Z,98126.50
2023-04-13T21:16:26.274Z,98142.47
2023-04-13T21:19:13.388Z,98145.09
2023-04-13T21:22:00.412Z,98131.75
2023-04-13T21:24:47.989Z,98130.53
2023-04-13T21:27:35.033Z,98128.59
2023-04-13T21:30:22.199Z,98117.97
2023-04-13T21:33:09.326Z,98100.22
2023-04-13T21:35:56.632Z,98120.03
2023-04-13T21:38:44.292Z,98125.34
2023-04-13T21:41:31.415Z,98111.31
2023-04-13T21:44:29.386Z,98104.84
2023-04-13T21:47:17.385Z,98098.13
2023-04-13T21:50:05.244Z,98099.56
2023-04-13T21:52:52.297Z,98085.97
2023-04-13T21:55:39.399Z,98103.59
2023-04-13T21:58:26.446Z,98093.53
2023-04-13T22:01:14.325Z,98108.16
2023-04-13T22:04:01.745Z,98110.22
2023-04-13T22:06:48.875Z,98102.44
2023-04-13T22:09:36.322Z,98115.44
2023-04-13T22:12:26.298Z,98117.22
2023-04-13T22:15:13.330Z,98106.56
2023-04-13T22:18:00.406Z,98099.13
2023-04-13T22:20:49.540Z,98095.91
2023-04-13T22:23:36.613Z,98093.75
2023-04-13T22:26:25.530Z,98085.38
2023-04-13T22:29:13.467Z,98104.41
2023-04-13T22:32:00.523Z,98103.03
2023-04-13T22:34:47.508Z,98106.13
2023-04-13T22:37:35.587Z,98102.41
2023-04-13T22:40:22.639Z,98103.72
2023-04-13T22:43:09.695Z,98098.28
2023-04-13T22:45:58.365Z,98095.47
2023-04-13T22:48:45.438Z,98096.06
2023-04-13T22:51:39.612Z,98099.69
2023-04-13T22:54:26.661Z,98099.69
2023-04-13T22:57:13.754Z,98095.63
2023-04-13T23:03:33.064Z,98100.44
2023-04-13T23:06:20.198Z,98094.41
2023-04-13T23:09:07.436Z,98110.09
2023-04-13T23:11:54.547Z,98088.63
2023-04-13T23:14:41.571Z,98090.59
2023-04-13T23:17:29.690Z,98108.53
2023-04-13T23:20:16.932Z,98093.53
2023-04-13T23:23:03.977Z,98091.56
2023-04-13T23:25:51.647Z,98101.38
2023-04-13T23:28:38.858Z,98087.38
2023-04-13T23:31:25.917Z,98071.47
2023-04-13T23:34:12.980Z,98072.22
2023-04-13T23:36:59.969Z,98088.50
2023-04-13T23:39:47.485Z,98077.72
2023-04-13T23:42:34.465Z,98053.13
2023-04-13T23:45:21.478Z,98064.72
2023-04-13T23:48:08.559Z,98055.59
2023-04-13T23:50:55.897Z,98044.44
2023-04-13T23:53:42.913Z,98056.03
2023-04-13T23:56:30.328Z,98060.13
2023-04-13T23:59:18.835Z,98065.31
